Home > Products > Valid Products > TAF

000
FTUS43 KDTX 012320
TAFDET
TAF
KDET 012320Z 0200/0224 24006KT P6SM SCT035 OVC100
     FM020300 26013G21KT P6SM BKN025
     FM021400 28010KT P6SM SCT035=



000
FTUS43 KDTX 012320
TAFDTW
TAF
KDTW 012320Z 0200/0306 24006KT P6SM SCT035 OVC100
     FM020300 26013G21KT P6SM BKN025
     FM021400 28010KT P6SM SCT035
     FM021900 26006KT P6SM SCT250=



000
FTUS43 KDTX 012320
TAFDET
TAF
KDET 012320Z 0200/0224 24006KT P6SM SCT035 OVC100
     FM020500 26013G21KT P6SM BKN025
     FM021400 28010KT P6SM SCT035=



000
FTUS43 KDTX 012320
TAFMBS
TAF
KMBS 012320Z 0200/0224 24010KT P6SM BKN028 BKN200
     FM020400 27014G23KT P6SM OVC026
     FM021100 29010KT P6SM SCT035=



000
FTUS43 KDTX 012320
TAFMBS
TAF
KMBS 012320Z 0200/0224 24010KT P6SM BKN028 BKN200
     FM020400 27014G23KT P6SM OVC026
     FM021100 29010KT P6SM SCT035=



000
FTUS43 KDTX 012320
TAFDET
TAF
KDET 012320Z 0200/0224 24006KT P6SM SCT035 OVC100
     FM020500 26013G21KT P6SM BKN025
     FM021400 28010KT P6SM SCT035=



000
FTUS43 KDTX 012320
TAFFNT
TAF
KFNT 012320Z 0200/0224 25006KT P6SM BKN028 BKN200
     FM020500 27012G22KT P6SM OVC024
     FM021300 29010KT P6SM SCT035=



000
FTUS43 KDTX 012320
TAFDTW
TAF
KDTW 012320Z 0200/0306 24006KT P6SM SCT035 OVC100
     FM020500 26013G21KT P6SM BKN025
     FM021400 28010KT P6SM SCT035
     FM021900 26006KT P6SM SCT250=



000
FTUS43 KDTX 012320
TAFDET
TAF
KDET 012320Z 0200/0224 24006KT P6SM SCT035 OVC100
     FM020300 26013G21KT P6SM BKN025
     FM021400 28010KT P6SM SCT035=



000
FTUS43 KDTX 012320
TAFDTW
TAF
KDTW 012320Z 0200/0306 24006KT P6SM SCT035 OVC100
     FM020300 26013G21KT P6SM BKN025
     FM021400 28010KT P6SM SCT035
     FM021900 26006KT P6SM SCT250=



000
FTUS43 KDTX 012320
TAFFNT
TAF
KFNT 012320Z 0200/0224 25006KT P6SM BKN028 BKN200
     FM020500 27012G22KT P6SM OVC024
     FM021300 29010KT P6SM SCT035=



000
FTUS43 KDTX 012320
TAFDTW
TAF
KDTW 012320Z 0200/0306 24006KT P6SM SCT035 OVC100
     FM020500 26013G21KT P6SM BKN025
     FM021400 28010KT P6SM SCT035
     FM021900 26006KT P6SM SCT250=



000
FTUS43 KDTX 012016 AAA
TAFMBS
TAF AMD
KMBS 012016Z 0120/0218 25009KT P6SM SCT030 BKN250
     FM012100 24010KT P6SM BKN028 BKN200
     FM020400 27014G23KT P6SM OVC026
     FM021100 29010KT P6SM SCT035=



000
FTUS43 KDTX 012016 AAA
TAFMBS
TAF AMD
KMBS 012016Z 0120/0218 25009KT P6SM SCT030 BKN250
     FM012100 24010KT P6SM BKN028 BKN200
     FM020400 27014G23KT P6SM OVC026
     FM021100 29010KT P6SM SCT035=



000
FTUS43 KDTX 012015 AAA
TAFFNT
TAF AMD
KFNT 012015Z 0120/0218 26007KT P6SM SCT028 OVC200
     FM012200 25006KT P6SM BKN028 BKN200
     FM020500 27012G22KT P6SM OVC024
     FM021300 29010KT P6SM SCT035=



000
FTUS43 KDTX 012015 AAA
TAFFNT
TAF AMD
KFNT 012015Z 0120/0218 26007KT P6SM SCT028 OVC200
     FM012200 25006KT P6SM BKN028 BKN200
     FM020500 27012G22KT P6SM OVC024
     FM021300 29010KT P6SM SCT035=



000
FTUS43 KDTX 012013 AAA
TAFDET
TAF AMD
KDET 012013Z 0120/0218 23007KT 6SM -SN BKN035 OVC060
      TEMPO 0121/0122 2SM -SN BKN025 OVC040
     FM012300 24006KT P6SM SCT035 OVC100
     FM020500 26013G21KT P6SM BKN025
     FM021400 28010KT P6SM SCT035=



000
FTUS43 KDTX 012012 AAB
TAFDTW
TAF AMD
KDTW 012012Z 0120/0224 23006KT 6SM -SN BKN035 OVC060
      TEMPO 0120/0121 3SM -SN BKN028 OVC045
     FM012300 24006KT P6SM SCT035 OVC100
     FM020500 26013G21KT P6SM BKN025
     FM021400 28010KT P6SM SCT035
     FM021900 26006KT P6SM SCT250=



000
FTUS43 KDTX 012012 AAB
TAFDTW
TAF AMD
KDTW 012012Z 0120/0224 23006KT 6SM -SN BKN035 OVC060
      TEMPO 0120/0121 3SM -SN BKN028 OVC045
     FM012300 24006KT P6SM SCT035 OVC100
     FM020500 26013G21KT P6SM BKN025
     FM021400 28010KT P6SM SCT035
     FM021900 26006KT P6SM SCT250=



000
FTUS43 KDTX 011748 AAA
TAFDTW
TAF AMD
KDTW 011748Z 0118/0224 23005KT 4SM -SN BKN035 OVC060
      TEMPO 0118/0122 1 1/2SM -SN OVC018
     FM012300 24006KT P6SM SCT035 OVC100
     FM020500 26013G21KT P6SM BKN025
     FM021400 28010KT P6SM SCT035
     FM021900 26006KT P6SM SCT250=



000
FTUS43 KDTX 011748 AAA
TAFDTW
TAF AMD
KDTW 011748Z 0118/0224 23005KT 4SM -SN BKN035 OVC060
      TEMPO 0118/0122 1 1/2SM -SN OVC018
     FM012300 24006KT P6SM SCT035 OVC100
     FM020500 26013G21KT P6SM BKN025
     FM021400 28010KT P6SM SCT035
     FM021900 26006KT P6SM SCT250=



000
FTUS43 KDTX 011721
TAFDTW
TAF
KDTW 011721Z 0118/0224 23005KT 4SM -SN BKN035 OVC060
      TEMPO 0119/0122 1 1/2SM -SN OVC018
     FM012300 24006KT P6SM SCT035 OVC100
     FM020500 26013G21KT P6SM BKN025
     FM021400 28010KT P6SM SCT035
     FM021900 26006KT P6SM SCT250=



000
FTUS43 KDTX 011721
TAFMBS
TAF
KMBS 011721Z 0118/0218 23008KT P6SM SCT030 BKN250
     FM020000 24010KT P6SM BKN028 BKN200
     FM020400 27014G23KT P6SM OVC026
     FM021100 29010KT P6SM SCT035=



000
FTUS43 KDTX 011721
TAFFNT
TAF
KFNT 011721Z 0118/0218 24007KT P6SM SCT035 OVC200
     FM020100 25006KT P6SM BKN035 BKN200
     FM020500 27012G22KT P6SM OVC024
     FM021300 29010KT P6SM SCT035=



000
FTUS43 KDTX 011721
TAFDET
TAF
KDET 011721Z 0118/0218 23005KT 6SM -SN SCT040 OVC070
      TEMPO 0119/0122 3SM -SN OVC024
     FM012300 24006KT P6SM SCT035 OVC100
     FM020500 26013G21KT P6SM BKN025
     FM021400 28010KT P6SM SCT035=



000
FTUS43 KDTX 011721
TAFDTW
TAF
KDTW 011721Z 0118/0224 23005KT 4SM -SN BKN035 OVC060
      TEMPO 0119/0122 1 1/2SM -SN OVC018
     FM012300 24006KT P6SM SCT035 OVC100
     FM020500 26013G21KT P6SM BKN025
     FM021400 28010KT P6SM SCT035
     FM021900 26006KT P6SM SCT250=



000
FTUS43 KDTX 011721
TAFMBS
TAF
KMBS 011721Z 0118/0218 23008KT P6SM SCT030 BKN250
     FM020000 24010KT P6SM BKN028 BKN200
     FM020400 27014G23KT P6SM OVC026
     FM021100 29010KT P6SM SCT035=



000
FTUS43 KDTX 011721
TAFFNT
TAF
KFNT 011721Z 0118/0218 24007KT P6SM SCT035 OVC200
     FM020100 25006KT P6SM BKN035 BKN200
     FM020500 27012G22KT P6SM OVC024
     FM021300 29010KT P6SM SCT035=



000
FTUS43 KDTX 011721
TAFDET
TAF
KDET 011721Z 0118/0218 23005KT 6SM -SN SCT040 OVC070
      TEMPO 0119/0122 3SM -SN OVC024
     FM012300 24006KT P6SM SCT035 OVC100
     FM020500 26013G21KT P6SM BKN025
     FM021400 28010KT P6SM SCT035=



000
FTUS43 KDTX 011421 AAA
TAFFNT
TAF AMD
KFNT 011421Z 0114/0212 20004KT P6SM SCT035 SCT060 BKN200
     FM011900 20006KT P6SM BKN035 BKN060
     FM020000 26012KT P6SM BKN035=



000
FTUS43 KDTX 011418 AAA
TAFDET
TAF AMD
KDET 011418Z 0114/0212 20003KT P6SM SCT018 OVC060
     FM011900 23006KT 4SM -SN OVC025
     FM012300 25010KT P6SM BKN030 OVC100
     FM021000 30012KT P6SM BKN025=



000
FTUS43 KDTX 011418 AAA
TAFDTW
TAF AMD
KDTW 011418Z 0114/0218 20003KT P6SM SCT018 OVC060
     FM011900 23006KT 2SM -SN OVC025
     FM012300 25010KT P6SM BKN030 OVC100
     FM021000 30012KT P6SM BKN025=



000
FTUS43 KDTX 011120
TAFFNT
TAF
KFNT 011120Z 0112/0212 20006KT P6SM BKN035 OVC060
     FM020000 26012KT P6SM BKN035=



000
FTUS43 KDTX 011120
TAFDTW
TAF
KDTW 011120Z 0112/0218 20003KT P6SM -SN BKN040 OVC080
     FM011900 23006KT 2SM -SN OVC025
     FM012300 25010KT P6SM BKN030 OVC100
     FM021000 30012KT P6SM BKN025=



000
FTUS43 KDTX 011120
TAFMBS
TAF
KMBS 011120Z 0112/0212 22006KT P6SM BKN040 OVC100
     FM020000 25012KT P6SM BKN035=



000
FTUS43 KDTX 011120
TAFDET
TAF
KDET 011120Z 0112/0212 20003KT P6SM -SN BKN040 OVC080
     FM011900 23006KT 2SM -SN OVC025
     FM012300 25010KT P6SM BKN030 OVC100
     FM021000 30012KT P6SM BKN025=



000
FTUS43 KDTX 010535
TAFDTW
TAF
KDTW 010535Z 0106/0212 12004KT 2SM -SN OVC025
     FM011100 VRB03KT 3SM -SN BKN025 OVC040
     FM011400 20003KT P6SM -SN BKN030 OVC060
     FM012000 23006KT 3SM -SN OVC025
     FM012300 25007KT P6SM BKN030 OVC100
     FM021000 30012KT P6SM BKN025=



000
FTUS43 KDTX 010535
TAFDET
TAF
KDET 010535Z 0106/0206 14006KT P6SM BKN040 OVC100
     FM010700 10004KT 3SM -SN BKN035 OVC050
     FM011000 VRB03KT 3SM -SN BKN025 OVC040
     FM011500 20003KT P6SM -SN BKN030 OVC060
     FM012000 23006KT 3SM -SN OVC025
     FM012300 25007KT P6SM BKN030 OVC100=



000
FTUS43 KDTX 010535
TAFMBS
TAF
KMBS 010535Z 0106/0206 17005KT P6SM OVC100
     FM010900 16004KT P6SM BKN045 OVC080
     FM011300 22006KT P6SM BKN040 OVC100
     FM020000 25010KT P6SM BKN035=



000
FTUS43 KDTX 010535
TAFFNT
TAF
KFNT 010535Z 0106/0206 20005KT P6SM BKN060 OVC080
     FM010800 15003KT 6SM -SN BKN040 OVC080
      TEMPO 0109/0111 4SM -SN BKN028 OVC040
     FM011300 22006KT P6SM BKN035 OVC060
     FM020000 26008KT P6SM BKN035=



000
FTUS43 KDTX 010535
TAFDTW
TAF
KDTW 010535Z 0106/0212 12004KT 2SM -SN OVC025
     FM011100 VRB03KT 3SM -SN BKN025 OVC040
     FM011400 20003KT P6SM -SN BKN030 OVC060
     FM012000 23006KT 3SM -SN OVC025
     FM012300 25007KT P6SM BKN030 OVC100
     FM021000 30012KT P6SM BKN025=



000
FTUS43 KDTX 010535
TAFMBS
TAF
KMBS 010535Z 0106/0206 17005KT P6SM OVC100
     FM010900 16004KT P6SM BKN045 OVC080
     FM011300 22006KT P6SM BKN040 OVC100
     FM020000 25010KT P6SM BKN035=



000
FTUS43 KDTX 010535
TAFDET
TAF
KDET 010535Z 0106/0206 14006KT P6SM BKN040 OVC100
     FM010700 10004KT 3SM -SN BKN035 OVC050
     FM011000 VRB03KT 3SM -SN BKN025 OVC040
     FM011500 20003KT P6SM -SN BKN030 OVC060
     FM012000 23006KT 3SM -SN OVC025
     FM012300 25007KT P6SM BKN030 OVC100=



000
FTUS43 KDTX 010535
TAFFNT
TAF
KFNT 010535Z 0106/0206 20005KT P6SM BKN060 OVC080
     FM010800 15003KT 6SM -SN BKN040 OVC080
      TEMPO 0109/0111 4SM -SN BKN028 OVC040
     FM011300 22006KT P6SM BKN035 OVC060
     FM020000 26008KT P6SM BKN035=



000
FTUS43 KDTX 010306 AAA
TAFDTW
TAF AMD
KDTW 010306Z 0103/0206 10004KT P6SM OVC100
     FM010600 10004KT 1 1/2SM -SN BKN025 OVC050
     FM011100 VRB03KT 3SM -SN BKN025 OVC040
     FM011400 20003KT 5SM -SN BKN030 OVC060
     FM012000 23006KT 4SM -SN OVC025
     FM020000 24007KT P6SM BKN030 OVC100=



000
FTUS43 KDTX 282324
TAFDET
TAF
KDET 282324Z 0100/0124 14004KT P6SM BKN150
     FM010700 09004KT 4SM -SN BKN040 OVC070
     FM011000 VRB03KT 2SM -SN BKN024 OVC040
     FM011400 20003KT 6SM -SN BKN030 OVC060
     FM012000 23006KT 5SM -SN OVC025=



000
FTUS43 KDTX 282324
TAFDTW
TAF
KDTW 282324Z 0100/0206 14004KT P6SM BKN150
     FM010600 09004KT 4SM -SN BKN040 OVC070
     FM011000 VRB03KT 1 1/2SM -SN BKN024 OVC040
     FM011400 20003KT 5SM -SN BKN030 OVC060
     FM012000 23006KT 4SM -SN OVC025
     FM020000 24007KT P6SM BKN030 OVC100=



000
FTUS43 KDTX 282324
TAFMBS
TAF
KMBS 282324Z 0100/0124 17005KT P6SM BKN200
     FM010800 16004KT P6SM BKN045 OVC080
     FM011400 22006KT P6SM BKN040 OVC100=



000
FTUS43 KDTX 282324
TAFFNT
TAF
KFNT 282324Z 0100/0124 20005KT P6SM BKN200
     FM010700 15003KT P6SM -SN BKN040 OVC080
     FM011100 12003KT 4SM -SN BKN028 OVC040
     FM011400 22006KT P6SM BKN035 OVC060=



000
FTUS43 KDTX 282324
TAFMBS
TAF
KMBS 282324Z 0100/0124 17005KT P6SM BKN200
     FM010800 16004KT P6SM BKN045 OVC080
     FM011400 22006KT P6SM BKN040 OVC100=



000
FTUS43 KDTX 282324
TAFDET
TAF
KDET 282324Z 0100/0124 14004KT P6SM BKN150
     FM010700 09004KT 4SM -SN BKN040 OVC070
     FM011000 VRB03KT 2SM -SN BKN024 OVC040
     FM011400 20003KT 6SM -SN BKN030 OVC060
     FM012000 23006KT 5SM -SN OVC025=



000
FTUS43 KDTX 282324
TAFDTW
TAF
KDTW 282324Z 0100/0206 14004KT P6SM BKN150
     FM010600 09004KT 4SM -SN BKN040 OVC070
     FM011000 VRB03KT 1 1/2SM -SN BKN024 OVC040
     FM011400 20003KT 5SM -SN BKN030 OVC060
     FM012000 23006KT 4SM -SN OVC025
     FM020000 24007KT P6SM BKN030 OVC100=



000
FTUS43 KDTX 282324
TAFFNT
TAF
KFNT 282324Z 0100/0124 20005KT P6SM BKN200
     FM010700 15003KT P6SM -SN BKN040 OVC080
     FM011100 12003KT 4SM -SN BKN028 OVC040
     FM011400 22006KT P6SM BKN035 OVC060=



000
FTUS43 KDTX 282027 AAA
TAFDTW
TAF AMD
KDTW 282027Z 2820/0124 19006KT P6SM BKN200
     FM010000 14004KT P6SM BKN150
     FM010500 09004KT 4SM -SN BKN040 OVC070
     FM011000 VRB03KT 1 1/2SM -SN BKN024 OVC040
     FM011400 20003KT 5SM -SN BKN030 OVC060
     FM012000 23006KT 4SM -SN OVC025=



000
FTUS43 KDTX 282027 AAA
TAFDTW
TAF AMD
KDTW 282027Z 2820/0124 19006KT P6SM BKN200
     FM010000 14004KT P6SM BKN150
     FM010500 09004KT 4SM -SN BKN040 OVC070
     FM011000 VRB03KT 1 1/2SM -SN BKN024 OVC040
     FM011400 20003KT 5SM -SN BKN030 OVC060
     FM012000 23006KT 4SM -SN OVC025=



000
FTUS43 KDTX 281721
TAFMBS
TAF
KMBS 281721Z 2818/0118 23010KT P6SM SKC
     FM010000 17005KT P6SM BKN200
     FM010700 16004KT P6SM BKN045 OVC080
     FM011400 22006KT P6SM BKN040 OVC100=



000
FTUS43 KDTX 281721
TAFFNT
TAF
KFNT 281721Z 2818/0118 22008KT P6SM SCT250
     FM010000 20005KT P6SM BKN200
     FM010600 15003KT P6SM -SN BKN040 OVC080
     FM011100 12003KT 4SM -SN BKN028 OVC040
     FM011400 22006KT P6SM BKN035 OVC060=



000
FTUS43 KDTX 281721
TAFDET
TAF
KDET 281721Z 2818/0118 20008KT P6SM BKN200
     FM010000 14004KT P6SM BKN150
     FM010600 09004KT 4SM -SN BKN040 OVC070
     FM011000 VRB03KT 2SM -SN BKN024 OVC040
     FM011400 20003KT 6SM -SN BKN030 OVC060=



000
FTUS43 KDTX 281721
TAFDTW
TAF
KDTW 281721Z 2818/0124 20008KT P6SM BKN200
     FM010000 14004KT P6SM BKN150
     FM010500 09004KT 4SM -SN BKN040 OVC070
     FM011000 VRB03KT 1 1/2SM -SN BKN024 OVC040
     FM011400 20003KT 5SM -SN BKN030 OVC060
     FM012000 23006KT 4SM -SN OVC025=



000
FTUS43 KDTX 281413 AAA
TAFDTW
TAF AMD
KDTW 281413Z 2814/0118 20004KT P6SM SCT250
     FM010000 14004KT P6SM OVC070
     FM010700 10004KT 3SM -SN OVC025
     FM011300 12003KT 5SM -SN OVC015
     FM011600 12003KT 2SM -SN OVC010=



000
FTUS43 KDTX 281120
TAFDET
TAF
KDET 281120Z 2812/0112 22004KT P6SM SCT250
     FM010000 14004KT P6SM OVC070
     FM010700 10004KT 3SM -SN OVC025=



000
FTUS43 KDTX 281120
TAFDTW
TAF
KDTW 281120Z 2812/0118 20004KT P6SM SCT250
     FM010000 14004KT P6SM OVC070
     FM010700 10004KT 3SM -SN OVC025
     FM011300 12003KT 5SM -SN OVC015
     FM011600 12003KT 2SM -SN OVC010=



000
FTUS43 KDTX 281120
TAFFNT
TAF
KFNT 281120Z 2812/0112 22004KT P6SM SCT250
     FM010000 14004KT P6SM OVC070
     FM010800 10004KT 6SM -SN OVC020=



000
FTUS43 KDTX 281120
TAFMBS
TAF
KMBS 281120Z 2812/0112 21004KT P6SM SKC
     FM010000 20004KT P6SM BKN120
     FM010800 17004KT P6SM OVC060=



000
FTUS43 KDTX 280533
TAFMBS
TAF
KMBS 280533Z 2806/0106 21004KT P6SM SKC
     FM010000 16004KT P6SM BKN120=



000
FTUS43 KDTX 280533
TAFDTW
TAF
KDTW 280533Z 2806/0112 20004KT P6SM SCT250
     FM010000 14004KT P6SM OVC080
     FM010800 12003KT 3SM -SN OVC025=



000
FTUS43 KDTX 280533
TAFDET
TAF
KDET 280533Z 2806/0106 20004KT P6SM SCT250
     FM010000 14004KT P6SM OVC080=



000
FTUS43 KDTX 280533
TAFFNT
TAF
KFNT 280533Z 2806/0106 21004KT P6SM SKC
     FM010000 16004KT P6SM BKN120=



000
FTUS43 KDTX 280301 AAA
TAFDTW
TAF AMD
KDTW 280301Z 2803/0106 21004KT P6SM SKC
     FM010000 22004KT P6SM BKN150=



000
FTUS43 KDTX 280301 AAA
TAFDTW
TAF AMD
KDTW 280301Z 2803/0106 21004KT P6SM SKC
     FM010000 22004KT P6SM BKN150=



000
FTUS43 KDTX 272320
TAFDET
TAF
KDET 272320Z 2800/2824 24006KT P6SM SCT045
     FM280200 21004KT P6SM SKC=



000
FTUS43 KDTX 272320
TAFDTW
TAF
KDTW 272320Z 2800/0106 24006KT P6SM SCT045
     FM280200 21004KT P6SM SKC
     FM010000 22004KT P6SM BKN150=



000
FTUS43 KDTX 272320
TAFMBS
TAF
KMBS 272320Z 2800/2824 24006KT P6SM SCT040
     FM280200 21004KT P6SM SKC=



000
FTUS43 KDTX 272320
TAFFNT
TAF
KFNT 272320Z 2800/2824 24006KT P6SM SCT040
     FM280200 21004KT P6SM SKC=



000
FTUS43 KDTX 272320
TAFDTW
TAF
KDTW 272320Z 2800/0106 24006KT P6SM SCT045
     FM280200 21004KT P6SM SKC
     FM010000 22004KT P6SM BKN150=



000
FTUS43 KDTX 272320
TAFDET
TAF
KDET 272320Z 2800/2824 24006KT P6SM SCT045
     FM280200 21004KT P6SM SKC=



000
FTUS43 KDTX 272320
TAFFNT
TAF
KFNT 272320Z 2800/2824 24006KT P6SM SCT040
     FM280200 21004KT P6SM SKC=



000
FTUS43 KDTX 272320
TAFMBS
TAF
KMBS 272320Z 2800/2824 24006KT P6SM SCT040
     FM280200 21004KT P6SM SKC=



000
FTUS43 KDTX 271735
TAFDTW
TAF
KDTW 271735Z 2718/2824 25006KT P6SM SCT035
     FM280000 21003KT P6SM SKC
     FM281800 22004KT P6SM BKN150=



000
FTUS43 KDTX 271735
TAFMBS
TAF
KMBS 271735Z 2718/2818 23006KT P6SM BKN035
      TEMPO 2718/2720 SCT035
     FM280800 21005KT P6SM SKC=



000
FTUS43 KDTX 271735
TAFFNT
TAF
KFNT 271735Z 2718/2818 25006KT P6SM SCT035
      TEMPO 2718/2720 BKN035
     FM272000 23006KT P6SM BKN035
     FM280200 21005KT P6SM SKC=



000
FTUS43 KDTX 271735
TAFDET
TAF
KDET 271735Z 2718/2818 25006KT P6SM SCT035
     FM280000 21003KT P6SM SKC=



000
FTUS43 KDTX 271430 AAA
TAFDTW
TAF AMD
KDTW 271430Z 2715/2818 25004KT P6SM SKC
     FM271800 25007KT P6SM SCT035
     FM280000 21005KT P6SM SKC=



000
FTUS43 KDTX 271430 AAA
TAFDTW
TAF AMD
KDTW 271430Z 2715/2818 25004KT P6SM SKC
     FM271800 25007KT P6SM SCT035
     FM280000 21005KT P6SM SKC=



000
FTUS43 KDTX 271120
TAFDET
TAF
KDET 271120Z 2712/2812 00000KT P6SM SKC
     FM271500 25007KT P6SM SCT035
     FM280000 21005KT P6SM SKC=



000
FTUS43 KDTX 271120
TAFMBS
TAF
KMBS 271120Z 2712/2812 VRB03KT P6SM SCT025
     FM271400 25007KT P6SM SCT035
     FM272000 23006KT P6SM BKN040
     FM280200 21005KT P6SM SKC=



000
FTUS43 KDTX 271120
TAFDTW
TAF
KDTW 271120Z 2712/2818 00000KT P6SM SKC
     FM271500 25007KT P6SM SCT035
     FM280000 21005KT P6SM SKC=



000
FTUS43 KDTX 271120
TAFFNT
TAF
KFNT 271120Z 2712/2812 00000KT P6SM FEW025
     FM271400 25007KT P6SM SCT035
     FM272000 23006KT P6SM BKN040
     FM280200 21005KT P6SM SKC=



000
FTUS43 KDTX 270547
TAFMBS
TAF
KMBS 270547Z 2706/2806 33003KT P6SM SCT025
     FM271400 25007KT P6SM SCT035
     FM272000 23006KT P6SM BKN040
     FM280200 21005KT P6SM SKC=



000
FTUS43 KDTX 270547
TAFDTW
TAF
KDTW 270547Z 2706/2812 33003KT P6SM SKC
     FM271500 25007KT P6SM SCT035
     FM280000 21005KT P6SM SKC=



000
FTUS43 KDTX 270547
TAFFNT
TAF
KFNT 270547Z 2706/2806 33003KT P6SM FEW025
     FM271400 25007KT P6SM SCT035
     FM272000 23006KT P6SM BKN040
     FM280200 21005KT P6SM SKC=



000
FTUS43 KDTX 270547
TAFDET
TAF
KDET 270547Z 2706/2806 33003KT P6SM SKC
     FM271500 25007KT P6SM SCT035
     FM280000 21005KT P6SM SKC=



000
FTUS43 KDTX 270306 AAA
TAFDTW
TAF AMD
KDTW 270306Z 2703/2806 36007KT P6SM FEW040 BKN200
     FM270700 33003KT P6SM SKC
     FM271500 25007KT P6SM SCT035
     FM280000 21005KT P6SM SKC=



    US Dept of Commerce
    National Oceanic and Atmospheric Administration
    National Weather Service
    1325 East West Highway
    Silver Spring, MD 20910
    Page Author: NWS Internet Services Team
Disclaimer
Information Quality
Credits
Glossary
Privacy Policy
Freedom of Information Act (FOIA)
About Us
Career Opportunities